sensor_id;sensor_type;location;lat;lon;timestamp;temperature;humidity
75517;DHT22;64097;52.548;13.406;2023-01-20T06:06:08;8.00;59.60
75517;DHT22;64097;52.548;13.406;2023-01-20T06:08:38;7.90;59.60
75517;DHT22;64097;52.548;13.406;2023-01-20T06:11:04;7.80;59.70
75517;DHT22;64097;52.548;13.406;2023-01-20T06:13:29;7.80;59.70
75517;DHT22;64097;52.548;13.406;2023-01-20T06:15:56;7.80;59.70
75517;DHT22;64097;52.548;13.406;2023-01-20T06:18:22;7.80;59.80
75517;DHT22;64097;52.548;13.406;2023-01-20T06:20:48;7.80;59.80
75517;DHT22;64097;52.548;13.406;2023-01-20T06:23:14;7.80;59.90
75517;DHT22;64097;52.548;13.406;2023-01-20T06:25:40;7.70;59.90
75517;DHT22;64097;52.548;13.406;2023-01-20T06:28:07;7.70;60.00
75517;DHT22;64097;52.548;13.406;2023-01-20T06:30:33;7.70;60.00
75517;DHT22;64097;52.548;13.406;2023-01-20T06:32:59;7.70;60.00
75517;DHT22;64097;52.548;13.406;2023-01-20T06:35:25;7.70;60.00
75517;DHT22;64097;52.548;13.406;2023-01-20T06:37:51;7.70;60.00
75517;DHT22;64097;52.548;13.406;2023-01-20T06:40:17;7.70;59.90
75517;DHT22;64097;52.548;13.406;2023-01-20T06:42:42;7.70;60.00
75517;DHT22;64097;52.548;13.406;2023-01-20T06:45:09;7.70;60.00
75517;DHT22;64097;52.548;13.406;2023-01-20T06:47:35;7.70;60.00
75517;DHT22;64097;52.548;13.406;2023-01-20T06:50:00;7.70;60.00
75517;DHT22;64097;52.548;13.406;2023-01-20T06:52:26;7.70;60.90
75517;DHT22;64097;52.548;13.406;2023-01-20T06:54:52;7.70;60.10
75517;DHT22;64097;52.548;13.406;2023-01-20T06:57:17;7.70;60.10
75517;DHT22;64097;52.548;13.406;2023-01-20T06:59:44;7.70;60.00
75517;DHT22;64097;52.548;13.406;2023-01-20T07:02:12;7.70;60.00
75517;DHT22;64097;52.548;13.406;2023-01-20T07:04:38;7.70;60.00
75517;DHT22;64097;52.548;13.406;2023-01-20T07:07:03;7.70;59.80
75517;DHT22;64097;52.548;13.406;2023-01-20T07:09:29;7.70;59.90
75517;DHT22;64097;52.548;13.406;2023-01-20T07:11:55;7.70;59.90
75517;DHT22;64097;52.548;13.406;2023-01-20T07:14:21;7.70;59.80
75517;DHT22;64097;52.548;13.406;2023-01-20T07:16:47;7.70;59.80
75517;DHT22;64097;52.548;13.406;2023-01-20T07:19:12;7.70;59.70
75517;DHT22;64097;52.548;13.406;2023-01-20T07:21:38;7.70;59.70
75517;DHT22;64097;52.548;13.406;2023-01-20T07:24:04;7.70;59.60
75517;DHT22;64097;52.548;13.406;2023-01-20T07:26:32;7.70;59.70
75517;DHT22;64097;52.548;13.406;2023-01-20T07:28:59;7.80;59.80
75517;DHT22;64097;52.548;13.406;2023-01-20T07:31:27;7.80;59.70
75517;DHT22;64097;52.548;13.406;2023-01-20T07:33:54;7.90;59.60
75517;DHT22;64097;52.548;13.406;2023-01-20T07:36:20;7.90;59.40
75517;DHT22;64097;52.548;13.406;2023-01-20T07:38:47;7.80;59.40
75517;DHT22;64097;52.548;13.406;2023-01-20T07:41:14;7.90;59.40
75517;DHT22;64097;52.548;13.406;2023-01-20T07:43:45;7.80;59.30
75517;DHT22;64097;52.548;13.406;2023-01-20T07:46:11;7.90;59.20
75517;DHT22;64097;52.548;13.406;2023-01-20T07:48:37;7.90;59.30
75517;DHT22;64097;52.548;13.406;2023-01-20T07:51:05;7.80;59.20
75517;DHT22;64097;52.548;13.406;2023-01-20T07:53:34;7.90;59.30
75517;DHT22;64097;52.548;13.406;2023-01-20T07:56:02;7.90;60.00
75517;DHT22;64097;52.548;13.406;2023-01-20T07:58:28;7.90;59.30
75517;DHT22;64097;52.548;13.406;2023-01-20T08:00:54;7.90;59.10
75517;DHT22;64097;52.548;13.406;2023-01-20T08:03:20;7.90;59.20
75517;DHT22;64097;52.548;13.406;2023-01-20T08:05:46;7.90;59.20
75517;DHT22;64097;52.548;13.406;2023-01-20T08:08:12;7.90;59.20
75517;DHT22;64097;52.548;13.406;2023-01-20T08:10:38;7.90;59.10
75517;DHT22;64097;52.548;13.406;2023-01-20T08:13:04;7.90;59.10
75517;DHT22;64097;52.548;13.406;2023-01-20T08:15:29;7.90;59.20
75517;DHT22;64097;52.548;13.406;2023-01-20T08:17:55;7.90;59.20
75517;DHT22;64097;52.548;13.406;2023-01-20T08:20:22;7.80;59.00
75517;DHT22;64097;52.548;13.406;2023-01-20T08:22:48;7.80;59.10
75517;DHT22;64097;52.548;13.406;2023-01-20T08:25:14;7.80;59.10
75517;DHT22;64097;52.548;13.406;2023-01-20T08:27:40;7.80;59.20
75517;DHT22;64097;52.548;13.406;2023-01-20T08:30:06;7.80;59.20
75517;DHT22;64097;52.548;13.406;2023-01-20T08:32:32;7.80;59.30
75517;DHT22;64097;52.548;13.406;2023-01-20T08:34:58;7.80;59.20
75517;DHT22;64097;52.548;13.406;2023-01-20T08:37:24;7.80;59.30
75517;DHT22;64097;52.548;13.406;2023-01-20T08:39:49;7.80;59.30
75517;DHT22;64097;52.548;13.406;2023-01-20T08:42:15;7.80;59.30
75517;DHT22;64097;52.548;13.406;2023-01-20T08:44:41;7.80;59.30
75517;DHT22;64097;52.548;13.406;2023-01-20T08:47:07;7.70;59.30
75517;DHT22;64097;52.548;13.406;2023-01-20T08:49:32;7.80;59.40
75517;DHT22;64097;52.548;13.406;2023-01-20T08:51:58;7.70;59.40
75517;DHT22;64097;52.548;13.406;2023-01-20T08:54:24;7.80;59.50
75517;DHT22;64097;52.548;13.406;2023-01-20T08:56:51;7.80;59.50
75517;DHT22;64097;52.548;13.406;2023-01-20T08:59:18;7.80;59.50
75517;DHT22;64097;52.548;13.406;2023-01-20T09:01:44;7.90;59.40
75517;DHT22;64097;52.548;13.406;2023-01-20T09:04:10;7.90;59.10
75517;DHT22;64097;52.548;13.406;2023-01-20T09:06:55;7.90;59.10
75517;DHT22;64097;52.548;13.406;2023-01-20T09:09:21;7.80;59.00
75517;DHT22;64097;52.548;13.406;2023-01-20T09:11:47;7.80;59.00
75517;DHT22;64097;52.548;13.406;2023-01-20T09:14:20;7.80;59.10
75517;DHT22;64097;52.548;13.406;2023-01-20T09:16:46;7.80;59.30
75517;DHT22;64097;52.548;13.406;2023-01-20T09:19:13;7.70;59.20
75517;DHT22;64097;52.548;13.406;2023-01-20T09:21:39;7.70;59.30
75517;DHT22;64097;52.548;13.406;2023-01-20T09:24:05;7.70;59.30
75517;DHT22;64097;52.548;13.406;2023-01-20T09:26:31;7.70;59.40
75517;DHT22;64097;52.548;13.406;2023-01-20T09:29:04;7.80;59.40
75517;DHT22;64097;52.548;13.406;2023-01-20T09:31:35;7.80;59.40
75517;DHT22;64097;52.548;13.406;2023-01-20T09:34:01;7.90;59.30
75517;DHT22;64097;52.548;13.406;2023-01-20T09:36:27;7.90;59.20
75517;DHT22;64097;52.548;13.406;2023-01-20T09:38:55;8.00;59.10
75517;DHT22;64097;52.548;13.406;2023-01-20T09:41:42;8.00;58.90
75517;DHT22;64097;52.548;13.406;2023-01-20T09:44:55;8.10;58.80
75517;DHT22;64097;52.548;13.406;2023-01-20T09:47:41;8.10;58.50
75517;DHT22;64097;52.548;13.406;2023-01-20T09:50:22;8.00;58.50
75517;DHT22;64097;52.548;13.406;2023-01-20T09:55:57;8.00;58.50
75517;DHT22;64097;52.548;13.406;2023-01-20T10:04:13;8.00;58.50
75517;DHT22;64097;52.548;13.406;2023-01-20T10:07:10;8.00;58.30
75517;DHT22;64097;52.548;13.406;2023-01-20T10:09:47;7.90;58.30
75517;DHT22;64097;52.548;13.406;2023-01-20T10:14:51;7.90;58.50
75517;DHT22;64097;52.548;13.406;2023-01-20T10:17:29;7.90;59.20
75517;DHT22;64097;52.548;13.406;2023-01-20T10:20:02;8.00;58.50
75517;DHT22;64097;52.548;13.406;2023-01-20T10:22:38;8.00;58.40
75517;DHT22;64097;52.548;13.406;2023-01-20T10:26:00;8.00;58.50
75517;DHT22;64097;52.548;13.406;2023-01-20T10:28:21;8.00;58.50
75517;DHT22;64097;52.548;13.406;2023-01-20T10:30:49;8.00;58.30
75517;DHT22;64097;52.548;13.406;2023-01-20T10:33:22;8.00;58.20
75517;DHT22;64097;52.548;13.406;2023-01-20T10:35:53;8.00;58.30
75517;DHT22;64097;52.548;13.406;2023-01-20T10:38:39;8.10;58.30
75517;DHT22;64097;52.548;13.406;2023-01-20T10:44:10;8.10;58.00
75517;DHT22;64097;52.548;13.406;2023-01-20T10:46:40;8.10;58.10
75517;DHT22;64097;52.548;13.406;2023-01-20T10:49:51;8.10;58.00
75517;DHT22;64097;52.548;13.406;2023-01-20T10:52:32;8.00;57.90
75517;DHT22;64097;52.548;13.406;2023-01-20T10:57:36;8.00;58.10
75517;DHT22;64097;52.548;13.406;2023-01-20T11:00:21;8.00;58.10
75517;DHT22;64097;52.548;13.406;2023-01-20T11:02:48;8.10;58.30
75517;DHT22;64097;52.548;13.406;2023-01-20T11:05:23;8.10;58.20
75517;DHT22;64097;52.548;13.406;2023-01-20T11:07:51;8.10;58.30
75517;DHT22;64097;52.548;13.406;2023-01-20T11:10:22;8.20;58.10
75517;DHT22;64097;52.548;13.406;2023-01-20T11:12:55;8.20;58.00
75517;DHT22;64097;52.548;13.406;2023-01-20T11:15:31;8.20;57.90
75517;DHT22;64097;52.548;13.406;2023-01-20T11:23:22;8.20;57.80
75517;DHT22;64097;52.548;13.406;2023-01-20T11:26:18;8.20;57.80
75517;DHT22;64097;52.548;13.406;2023-01-20T11:31:19;8.30;57.70
75517;DHT22;64097;52.548;13.406;2023-01-20T11:34:00;8.20;58.40
75517;DHT22;64097;52.548;13.406;2023-01-20T11:36:26;8.30;57.70
75517;DHT22;64097;52.548;13.406;2023-01-20T11:38:54;8.20;57.70
75517;DHT22;64097;52.548;13.406;2023-01-20T11:41:25;8.20;57.90
75517;DHT22;64097;52.548;13.406;2023-01-20T11:43:56;8.20;58.00
75517;DHT22;64097;52.548;13.406;2023-01-20T11:46:25;8.30;57.90
75517;DHT22;64097;52.548;13.406;2023-01-20T11:49:19;8.40;57.80
75517;DHT22;64097;52.548;13.406;2023-01-20T11:51:54;8.40;57.70
75517;DHT22;64097;52.548;13.406;2023-01-20T11:54:22;8.40;57.60
75517;DHT22;64097;52.548;13.406;2023-01-20T11:56:56;8.40;57.50
75517;DHT22;64097;52.548;13.406;2023-01-20T11:59:34;8.40;57.50
75517;DHT22;64097;52.548;13.406;2023-01-20T12:02:03;8.40;57.50
75517;DHT22;64097;52.548;13.406;2023-01-20T12:05:09;8.50;57.50
75517;DHT22;64097;52.548;13.406;2023-01-20T12:07:42;8.50;57.40
75517;DHT22;64097;52.548;13.406;2023-01-20T12:12:55;8.50;57.40
75517;DHT22;64097;52.548;13.406;2023-01-20T12:15:24;8.50;57.30
75517;DHT22;64097;52.548;13.406;2023-01-20T12:20:45;8.50;57.30
75517;DHT22;64097;52.548;13.406;2023-01-20T12:26:03;8.50;57.20
75517;DHT22;64097;52.548;13.406;2023-01-20T12:31:26;8.50;57.10
75517;DHT22;64097;52.548;13.406;2023-01-20T12:34:02;8.50;57.20
75517;DHT22;64097;52.548;13.406;2023-01-20T12:45:22;8.60;57.40
75517;DHT22;64097;52.548;13.406;2023-01-20T12:51:10;8.70;57.40
75517;DHT22;64097;52.548;13.406;2023-01-20T12:53:45;8.70;56.70
75517;DHT22;64097;52.548;13.406;2023-01-20T12:56:33;8.50;56.70
75517;DHT22;64097;52.548;13.406;2023-01-20T12:59:24;8.50;56.80
75517;DHT22;64097;52.548;13.406;2023-01-20T13:07:47;8.50;57.00
75517;DHT22;64097;52.548;13.406;2023-01-20T13:10:50;8.50;57.00
75517;DHT22;64097;52.548;13.406;2023-01-20T13:13:18;8.60;57.00
75517;DHT22;64097;52.548;13.406;2023-01-20T13:15:52;8.60;56.90
75517;DHT22;64097;52.548;13.406;2023-01-20T13:20:47;8.70;57.10
75517;DHT22;64097;52.548;13.406;2023-01-20T13:23:28;8.60;56.10
75517;DHT22;64097;52.548;13.406;2023-01-20T13:25:56;8.60;56.50
75517;DHT22;64097;52.548;13.406;2023-01-20T13:28:25;8.60;56.70
75517;DHT22;64097;52.548;13.406;2023-01-20T13:30:54;8.60;56.80
75517;DHT22;64097;52.548;13.406;2023-01-20T13:33:36;8.70;56.60
75517;DHT22;64097;52.548;13.406;2023-01-20T13:36:22;8.70;56.60
75517;DHT22;64097;52.548;13.406;2023-01-20T13:45:24;8.80;56.30
75517;DHT22;64097;52.548;13.406;2023-01-20T13:50:38;8.80;56.40
75517;DHT22;64097;52.548;13.406;2023-01-20T13:58:44;8.70;56.30
